sensor_id;sensor_type;location;lat;lon;timestamp;pressure;altitude;pressure_sealevel;temperature;humidity
79455;BME280;68900;52.134;5.420;2023-12-20T00:01:02;101716.16;;;6.59;100.00
79455;BME280;68900;52.134;5.420;2023-12-20T00:03:28;101713.56;;;6.57;100.00
79455;BME280;68900;52.134;5.420;2023-12-20T00:06:07;101704.78;;;6.55;100.00
79455;BME280;68900;52.134;5.420;2023-12-20T00:08:34;101708.22;;;6.57;100.00
79455;BME280;68900;52.134;5.420;2023-12-20T00:11:00;101704.88;;;6.54;100.00
79455;BME280;68900;52.134;5.420;2023-12-20T00:13:27;101704.03;;;6.53;100.00
79455;BME280;68900;52.134;5.420;2023-12-20T00:15:53;101701.47;;;6.52;100.00
79455;BME280;68900;52.134;5.420;2023-12-20T00:18:20;101694.56;;;6.48;100.00
79455;BME280;68900;52.134;5.420;2023-12-20T00:20:46;101698.03;;;6.50;100.00
79455;BME280;68900;52.134;5.420;2023-12-20T00:23:13;101695.56;;;6.47;100.00
79455;BME280;68900;52.134;5.420;2023-12-20T00:25:40;101700.25;;;6.43;100.00
79455;BME280;68900;52.134;5.420;2023-12-20T00:28:06;101693.28;;;6.41;100.00
79455;BME280;68900;52.134;5.420;2023-12-20T00:30:33;101692.41;;;6.40;100.00
79455;BME280;68900;52.134;5.420;2023-12-20T00:33:00;101692.50;;;6.39;100.00
79455;BME280;68900;52.134;5.420;2023-12-20T00:35:26;101700.47;;;6.40;100.00
79455;BME280;68900;52.134;5.420;2023-12-20T00:37:53;101702.50;;;6.37;100.00
79455;BME280;68900;52.134;5.420;2023-12-20T00:40:19;101693.91;;;6.32;100.00
79455;BME280;68900;52.134;5.420;2023-12-20T00:42:47;101706.53;;;6.30;100.00
79455;BME280;68900;52.134;5.420;2023-12-20T00:45:14;101695.94;;;6.28;100.00
79455;BME280;68900;52.134;5.420;2023-12-20T00:47:40;101697.84;;;6.26;100.00
79455;BME280;68900;52.134;5.420;2023-12-20T00:50:08;101691.84;;;6.22;100.00
79455;BME280;68900;52.134;5.420;2023-12-20T00:52:34;101690.22;;;6.20;100.00
79455;BME280;68900;52.134;5.420;2023-12-20T00:55:01;101695.56;;;6.20;100.00
79455;BME280;68900;52.134;5.420;2023-12-20T00:57:27;101695.88;;;6.15;100.00
79455;BME280;68900;52.134;5.420;2023-12-20T00:59:54;101705.00;;;6.13;100.00
79455;BME280;68900;52.134;5.420;2023-12-20T01:02:20;101706.91;;;6.11;100.00
79455;BME280;68900;52.134;5.420;2023-12-20T01:04:47;101698.97;;;6.09;100.00
79455;BME280;68900;52.134;5.420;2023-12-20T01:07:13;101695.75;;;6.04;100.00
79455;BME280;68900;52.134;5.420;2023-12-20T01:09:40;101692.28;;;6.02;100.00
79455;BME280;68900;52.134;5.420;2023-12-20T01:12:06;101689.06;;;5.97;100.00
79455;BME280;68900;52.134;5.420;2023-12-20T01:14:33;101681.16;;;5.96;100.00
79455;BME280;68900;52.134;5.420;2023-12-20T01:17:00;101690.03;;;5.96;100.00
79455;BME280;68900;52.134;5.420;2023-12-20T01:19:26;101678.56;;;5.94;100.00
79455;BME280;68900;52.134;5.420;2023-12-20T01:21:54;101672.44;;;5.92;100.00
79455;BME280;68900;52.134;5.420;2023-12-20T01:24:21;101684.88;;;5.93;100.00
79455;BME280;68900;52.134;5.420;2023-12-20T01:26:48;101699.22;;;5.92;100.00
79455;BME280;68900;52.134;5.420;2023-12-20T01:29:14;101702.00;;;5.91;100.00
79455;BME280;68900;52.134;5.420;2023-12-20T01:31:42;101702.97;;;5.90;100.00
79455;BME280;68900;52.134;5.420;2023-12-20T01:34:08;101710.91;;;5.91;100.00
79455;BME280;68900;52.134;5.420;2023-12-20T01:36:35;101703.63;;;5.93;100.00
79455;BME280;68900;52.134;5.420;2023-12-20T01:39:02;101708.88;;;5.95;100.00
79455;BME280;68900;52.134;5.420;2023-12-20T01:41:33;101705.34;;;5.94;100.00
79455;BME280;68900;52.134;5.420;2023-12-20T01:43:59;101704.47;;;5.94;100.00
79455;BME280;68900;52.134;5.420;2023-12-20T01:46:26;101695.50;;;5.95;100.00
79455;BME280;68900;52.134;5.420;2023-12-20T01:48:53;101689.19;;;5.96;100.00
79455;BME280;68900;52.134;5.420;2023-12-20T01:51:20;101685.63;;;5.95;100.00
79455;BME280;68900;52.134;5.420;2023-12-20T01:53:47;101684.69;;;5.96;100.00
79455;BME280;68900;52.134;5.420;2023-12-20T01:56:15;101690.88;;;5.97;100.00
79455;BME280;68900;52.134;5.420;2023-12-20T01:58:46;101689.06;;;5.97;100.00
79455;BME280;68900;52.134;5.420;2023-12-20T02:01:13;101695.41;;;5.96;100.00
79455;BME280;68900;52.134;5.420;2023-12-20T02:03:41;101688.19;;;5.97;100.00
79455;BME280;68900;52.134;5.420;2023-12-20T02:06:09;101689.19;;;5.96;100.00
79455;BME280;68900;52.134;5.420;2023-12-20T02:08:36;101691.19;;;5.92;100.00
79455;BME280;68900;52.134;5.420;2023-12-20T02:11:03;101692.16;;;5.91;100.00
79455;BME280;68900;52.134;5.420;2023-12-20T02:13:30;101691.38;;;5.89;100.00
79455;BME280;68900;52.134;5.420;2023-12-20T02:15:57;101686.91;;;5.90;100.00
79455;BME280;68900;52.134;5.420;2023-12-20T02:18:28;101687.75;;;5.90;100.00
79455;BME280;68900;52.134;5.420;2023-12-20T02:20:55;101689.66;;;5.88;100.00
79455;BME280;68900;52.134;5.420;2023-12-20T02:23:22;101683.53;;;5.86;100.00
79455;BME280;68900;52.134;5.420;2023-12-20T02:25:49;101674.59;;;5.87;100.00
79455;BME280;68900;52.134;5.420;2023-12-20T02:28:15;101683.63;;;5.85;100.00
79455;BME280;68900;52.134;5.420;2023-12-20T02:30:42;101685.34;;;5.86;100.00
79455;BME280;68900;52.134;5.420;2023-12-20T02:33:10;101676.28;;;5.88;100.00
79455;BME280;68900;52.134;5.420;2023-12-20T02:35:38;101677.13;;;5.89;100.00
79455;BME280;68900;52.134;5.420;2023-12-20T02:38:05;101678.88;;;5.90;100.00
79455;BME280;68900;52.134;5.420;2023-12-20T02:40:32;101672.66;;;5.89;100.00
79455;BME280;68900;52.134;5.420;2023-12-20T02:42:58;101679.63;;;5.92;100.00
79455;BME280;68900;52.134;5.420;2023-12-20T02:45:26;101667.06;;;5.92;100.00
79455;BME280;68900;52.134;5.420;2023-12-20T02:47:53;101672.34;;;5.94;100.00
79455;BME280;68900;52.134;5.420;2023-12-20T02:50:20;101663.25;;;5.96;100.00
79455;BME280;68900;52.134;5.420;2023-12-20T02:52:46;101659.72;;;5.96;100.00
79455;BME280;68900;52.134;5.420;2023-12-20T02:55:13;101657.91;;;5.96;100.00
79455;BME280;68900;52.134;5.420;2023-12-20T02:57:40;101656.28;;;5.94;100.00
79455;BME280;68900;52.134;5.420;2023-12-20T03:00:10;101658.22;;;5.92;100.00
79455;BME280;68900;52.134;5.420;2023-12-20T03:02:37;101643.84;;;5.93;100.00
79455;BME280;68900;52.134;5.420;2023-12-20T03:05:03;101649.09;;;5.94;100.00
79455;BME280;68900;52.134;5.420;2023-12-20T03:07:30;101650.81;;;5.95;100.00
79455;BME280;68900;52.134;5.420;2023-12-20T03:09:57;101652.56;;;5.96;100.00
79455;BME280;68900;52.134;5.420;2023-12-20T03:12:43;101654.38;;;5.96;100.00
79455;BME280;68900;52.134;5.420;2023-12-20T03:15:10;101652.44;;;5.98;100.00
79455;BME280;68900;52.134;5.420;2023-12-20T03:17:36;101635.41;;;5.99;100.00
79455;BME280;68900;52.134;5.420;2023-12-20T03:20:03;101643.44;;;5.99;100.00
79455;BME280;68900;52.134;5.420;2023-12-20T03:22:30;101642.50;;;6.00;100.00
79455;BME280;68900;52.134;5.420;2023-12-20T03:24:57;101631.66;;;6.01;100.00
79455;BME280;68900;52.134;5.420;2023-12-20T03:27:23;101628.16;;;6.01;100.00
79455;BME280;68900;52.134;5.420;2023-12-20T03:29:50;101626.28;;;6.01;100.00
79455;BME280;68900;52.134;5.420;2023-12-20T03:32:16;101620.94;;;6.01;100.00
79455;BME280;68900;52.134;5.420;2023-12-20T03:34:43;101627.16;;;6.02;100.00
79455;BME280;68900;52.134;5.420;2023-12-20T03:37:11;101632.41;;;6.03;100.00
79455;BME280;68900;52.134;5.420;2023-12-20T03:39:38;101624.16;;;6.06;100.00
79455;BME280;68900;52.134;5.420;2023-12-20T03:42:04;101638.25;;;6.10;100.00
79455;BME280;68900;52.134;5.420;2023-12-20T03:44:31;101626.44;;;6.12;100.00
79455;BME280;68900;52.134;5.420;2023-12-20T03:46:57;101629.03;;;6.14;100.00
79455;BME280;68900;52.134;5.420;2023-12-20T03:49:23;101632.44;;;6.16;100.00
79455;BME280;68900;52.134;5.420;2023-12-20T03:51:50;101634.06;;;6.18;100.00
79455;BME280;68900;52.134;5.420;2023-12-20T03:54:16;101627.84;;;6.18;100.00
79455;BME280;68900;52.134;5.420;2023-12-20T03:56:43;101633.31;;;6.16;100.00
79455;BME280;68900;52.134;5.420;2023-12-20T03:59:09;101628.91;;;6.15;100.00
79455;BME280;68900;52.134;5.420;2023-12-20T04:01:36;101630.53;;;6.18;100.00
79455;BME280;68900;52.134;5.420;2023-12-20T04:04:03;101628.59;;;6.20;100.00
79455;BME280;68900;52.134;5.420;2023-12-20T04:06:29;101628.72;;;6.18;100.00
79455;BME280;68900;52.134;5.420;2023-12-20T04:08:56;101628.59;;;6.20;100.00
79455;BME280;68900;52.134;5.420;2023-12-20T04:11:22;101622.28;;;6.21;100.00
79455;BME280;68900;52.134;5.420;2023-12-20T04:13:49;101631.19;;;6.21;100.00
79455;BME280;68900;52.134;5.420;2023-12-20T04:16:15;101618.56;;;6.24;100.00
79455;BME280;68900;52.134;5.420;2023-12-20T04:18:42;101617.38;;;6.28;100.00
79455;BME280;68900;52.134;5.420;2023-12-20T04:21:09;101606.75;;;6.26;100.00
79455;BME280;68900;52.134;5.420;2023-12-20T04:23:35;101622.84;;;6.26;100.00
79455;BME280;68900;52.134;5.420;2023-12-20T04:26:02;101618.13;;;6.30;100.00
79455;BME280;68900;52.134;5.420;2023-12-20T04:28:28;101611.78;;;6.31;100.00
79455;BME280;68900;52.134;5.420;2023-12-20T04:30:56;101619.63;;;6.34;100.00
79455;BME280;68900;52.134;5.420;2023-12-20T04:33:23;101630.25;;;6.35;100.00
79455;BME280;68900;52.134;5.420;2023-12-20T04:35:50;101630.16;;;6.37;100.00
79455;BME280;68900;52.134;5.420;2023-12-20T04:38:17;101626.38;;;6.39;100.00
79455;BME280;68900;52.134;5.420;2023-12-20T04:40:43;101629.81;;;6.41;100.00
79455;BME280;68900;52.134;5.420;2023-12-20T04:43:10;101630.69;;;6.42;100.00
79455;BME280;68900;52.134;5.420;2023-12-20T04:45:36;101610.75;;;6.46;100.00
79455;BME280;68900;52.134;5.420;2023-12-20T04:48:03;101614.38;;;6.45;100.00
79455;BME280;68900;52.134;5.420;2023-12-20T04:50:30;101616.00;;;6.47;100.00
79455;BME280;68900;52.134;5.420;2023-12-20T04:52:57;101622.22;;;6.48;100.00
79455;BME280;68900;52.134;5.420;2023-12-20T04:55:26;101610.53;;;6.49;100.00
79455;BME280;68900;52.134;5.420;2023-12-20T04:57:52;101609.47;;;6.51;100.00
79455;BME280;68900;52.134;5.420;2023-12-20T05:00:19;101603.03;;;6.54;100.00
79455;BME280;68900;52.134;5.420;2023-12-20T05:02:45;101596.72;;;6.55;100.00
79455;BME280;68900;52.134;5.420;2023-12-20T05:05:12;101600.13;;;6.57;100.00
79455;BME280;68900;52.134;5.420;2023-12-20T05:07:39;101595.53;;;6.59;100.00
79455;BME280;68900;52.134;5.420;2023-12-20T05:10:06;101598.22;;;6.59;100.00
79455;BME280;68900;52.134;5.420;2023-12-20T05:12:34;101610.53;;;6.61;100.00
79455;BME280;68900;52.134;5.420;2023-12-20T05:15:01;101609.56;;;6.62;100.00
79455;BME280;68900;52.134;5.420;2023-12-20T05:17:27;101612.16;;;6.64;100.00
79455;BME280;68900;52.134;5.420;2023-12-20T05:19:54;101604.09;;;6.64;100.00
79455;BME280;68900;52.134;5.420;2023-12-20T05:22:20;101606.69;;;6.65;100.00
79455;BME280;68900;52.134;5.420;2023-12-20T05:24:47;101608.38;;;6.66;100.00
79455;BME280;68900;52.134;5.420;2023-12-20T05:27:13;101611.94;;;6.67;100.00
79455;BME280;68900;52.134;5.420;2023-12-20T05:29:40;101610.97;;;6.68;100.00
79455;BME280;68900;52.134;5.420;2023-12-20T05:32:06;101608.19;;;6.70;100.00
79455;BME280;68900;52.134;5.420;2023-12-20T05:34:33;101607.31;;;6.69;100.00
79455;BME280;68900;52.134;5.420;2023-12-20T05:36:59;101608.91;;;6.72;100.00
79455;BME280;68900;52.134;5.420;2023-12-20T05:39:28;101615.16;;;6.72;100.00
79455;BME280;68900;52.134;5.420;2023-12-20T05:41:54;101611.59;;;6.72;100.00
79455;BME280;68900;52.134;5.420;2023-12-20T05:44:21;101599.06;;;6.72;100.00
79455;BME280;68900;52.134;5.420;2023-12-20T05:46:47;101613.22;;;6.74;100.00
79455;BME280;68900;52.134;5.420;2023-12-20T05:49:14;101600.78;;;6.73;100.00
79455;BME280;68900;52.134;5.420;2023-12-20T05:51:40;101601.75;;;6.72;100.00
79455;BME280;68900;52.134;5.420;2023-12-20T05:54:08;101603.56;;;6.72;99.98
79455;BME280;68900;52.134;5.420;2023-12-20T05:56:35;101612.38;;;6.74;100.00
79455;BME280;68900;52.134;5.420;2023-12-20T05:59:02;101602.50;;;6.74;100.00
79455;BME280;68900;52.134;5.420;2023-12-20T06:01:28;101605.91;;;6.76;99.93
79455;BME280;68900;52.134;5.420;2023-12-20T06:03:55;101606.78;;;6.77;100.00
79455;BME280;68900;52.134;5.420;2023-12-20T06:06:23;101607.53;;;6.79;99.63
79455;BME280;68900;52.134;5.420;2023-12-20T06:08:49;101605.81;;;6.78;100.00
79455;BME280;68900;52.134;5.420;2023-12-20T06:11:16;101607.53;;;6.79;99.90
79455;BME280;68900;52.134;5.420;2023-12-20T06:13:43;101601.31;;;6.78;99.44
79455;BME280;68900;52.134;5.420;2023-12-20T06:16:09;101600.34;;;6.79;99.82
79455;BME280;68900;52.134;5.420;2023-12-20T06:18:36;101599.38;;;6.80;99.59
79455;BME280;68900;52.134;5.420;2023-12-20T06:21:04;101596.50;;;6.83;99.29
79455;BME280;68900;52.134;5.420;2023-12-20T06:23:31;101597.34;;;6.84;99.34
79455;BME280;68900;52.134;5.420;2023-12-20T06:25:57;101594.53;;;6.85;99.01
79455;BME280;68900;52.134;5.420;2023-12-20T06:28:24;101596.34;;;6.85;99.63
79455;BME280;68900;52.134;5.420;2023-12-20T06:30:50;101594.53;;;6.85;99.22
79455;BME280;68900;52.134;5.420;2023-12-20T06:33:18;101591.75;;;6.87;99.42
79455;BME280;68900;52.134;5.420;2023-12-20T06:35:49;101602.38;;;6.88;99.33
79455;BME280;68900;52.134;5.420;2023-12-20T06:38:17;101588.97;;;6.88;99.18
79455;BME280;68900;52.134;5.420;2023-12-20T06:40:44;101596.03;;;6.89;99.47
79455;BME280;68900;52.134;5.420;2023-12-20T06:43:12;101593.34;;;6.89;99.64
79455;BME280;68900;52.134;5.420;2023-12-20T06:45:57;101590.66;;;6.89;99.71
79455;BME280;68900;52.134;5.420;2023-12-20T06:48:24;101587.03;;;6.90;99.83
79455;BME280;68900;52.134;5.420;2023-12-20T06:50:51;101584.16;;;6.93;99.25
79455;BME280;68900;52.134;5.420;2023-12-20T06:53:17;101579.59;;;6.94;99.35
79455;BME280;68900;52.134;5.420;2023-12-20T06:55:44;101577.78;;;6.94;99.24
79455;BME280;68900;52.134;5.420;2023-12-20T06:58:10;101583.28;;;6.93;98.84
79455;BME280;68900;52.134;5.420;2023-12-20T07:00:37;101591.00;;;6.97;98.88
79455;BME280;68900;52.134;5.420;2023-12-20T07:03:04;101576.72;;;6.97;98.62
79455;BME280;68900;52.134;5.420;2023-12-20T07:05:30;101584.66;;;6.98;99.27
79455;BME280;68900;52.134;5.420;2023-12-20T07:07:57;101580.03;;;7.00;98.61
79455;BME280;68900;52.134;5.420;2023-12-20T07:10:24;101582.72;;;7.00;98.96
79455;BME280;68900;52.134;5.420;2023-12-20T07:12:50;101588.94;;;7.01;98.68
79455;BME280;68900;52.134;5.420;2023-12-20T07:15:18;101591.63;;;7.01;98.91
79455;BME280;68900;52.134;5.420;2023-12-20T07:17:45;101576.41;;;7.01;99.03
79455;BME280;68900;52.134;5.420;2023-12-20T07:20:12;101578.13;;;7.02;99.08
79455;BME280;68900;52.134;5.420;2023-12-20T07:22:39;101569.94;;;7.04;98.75
79455;BME280;68900;52.134;5.420;2023-12-20T07:25:06;101570.81;;;7.04;98.44
79455;BME280;68900;52.134;5.420;2023-12-20T07:27:33;101569.84;;;7.05;98.87
79455;BME280;68900;52.134;5.420;2023-12-20T07:29:59;101564.47;;;7.05;99.24
79455;BME280;68900;52.134;5.420;2023-12-20T07:32:26;101572.28;;;7.08;98.57
79455;BME280;68900;52.134;5.420;2023-12-20T07:34:53;101574.09;;;7.08;98.12
79455;BME280;68900;52.134;5.420;2023-12-20T07:37:21;101558.88;;;7.08;98.79
79455;BME280;68900;52.134;5.420;2023-12-20T07:39:57;101556.94;;;7.10;99.13
79455;BME280;68900;52.134;5.420;2023-12-20T07:42:24;101561.34;;;7.12;98.42
79455;BME280;68900;52.134;5.420;2023-12-20T07:44:54;101559.53;;;7.12;98.59
79455;BME280;68900;52.134;5.420;2023-12-20T07:47:21;101566.72;;;7.12;98.61
79455;BME280;68900;52.134;5.420;2023-12-20T07:49:54;101566.59;;;7.13;98.61
79455;BME280;68900;52.134;5.420;2023-12-20T07:52:26;101576.34;;;7.14;98.86
79455;BME280;68900;52.134;5.420;2023-12-20T07:54:52;101578.94;;;7.16;98.23
79455;BME280;68900;52.134;5.420;2023-12-20T07:57:19;101582.50;;;7.16;98.27
79455;BME280;68900;52.134;5.420;2023-12-20T07:59:45;101583.97;;;7.20;98.05
79455;BME280;68900;52.134;5.420;2023-12-20T08:02:12;101592.88;;;7.21;98.78
79455;BME280;68900;52.134;5.420;2023-12-20T08:04:39;101596.44;;;7.21;98.16
79455;BME280;68900;52.134;5.420;2023-12-20T08:07:05;101587.38;;;7.22;98.64
79455;BME280;68900;52.134;5.420;2023-12-20T08:09:32;101598.25;;;7.21;98.05
79455;BME280;68900;52.134;5.420;2023-12-20T08:12:00;101607.03;;;7.23;98.51
79455;BME280;68900;52.134;5.420;2023-12-20T08:14:26;101603.38;;;7.24;98.99
79455;BME280;68900;52.134;5.420;2023-12-20T08:16:53;101605.09;;;7.25;98.53
79455;BME280;68900;52.134;5.420;2023-12-20T08:19:20;101598.88;;;7.24;97.84
79455;BME280;68900;52.134;5.420;2023-12-20T08:21:46;101597.69;;;7.28;97.89
79455;BME280;68900;52.134;5.420;2023-12-20T08:24:15;101598.53;;;7.29;97.92
79455;BME280;68900;52.134;5.420;2023-12-20T08:26:42;101598.53;;;7.29;97.98
79455;BME280;68900;52.134;5.420;2023-12-20T08:29:08;101584.38;;;7.27;98.11
79455;BME280;68900;52.134;5.420;2023-12-20T08:31:35;101584.25;;;7.28;97.81
79455;BME280;68900;52.134;5.420;2023-12-20T08:34:02;101590.50;;;7.29;98.24
79455;BME280;68900;52.134;5.420;2023-12-20T08:36:28;101583.31;;;7.29;98.10
79455;BME280;68900;52.134;5.420;2023-12-20T08:38:55;101581.25;;;7.33;97.87
79455;BME280;68900;52.134;5.420;2023-12-20T08:41:25;101581.25;;;7.33;98.16
79455;BME280;68900;52.134;5.420;2023-12-20T08:43:51;101582.97;;;7.34;98.32
79455;BME280;68900;52.134;5.420;2023-12-20T08:46:18;101577.59;;;7.34;98.21
79455;BME280;68900;52.134;5.420;2023-12-20T08:48:45;101580.16;;;7.35;98.24
79455;BME280;68900;52.134;5.420;2023-12-20T08:51:13;101582.00;;;7.35;98.11
79455;BME280;68900;52.134;5.420;2023-12-20T08:53:40;101583.81;;;7.34;98.09
79455;BME280;68900;52.134;5.420;2023-12-20T08:56:06;101579.09;;;7.38;98.60
79455;BME280;68900;52.134;5.420;2023-12-20T08:58:36;101579.09;;;7.38;98.82
79455;BME280;68900;52.134;5.420;2023-12-20T09:01:05;101576.63;;;7.35;99.29
79455;BME280;68900;52.134;5.420;2023-12-20T09:03:32;101582.00;;;7.35;98.66
79455;BME280;68900;52.134;5.420;2023-12-20T09:05:59;101590.06;;;7.35;99.77
79455;BME280;68900;52.134;5.420;2023-12-20T09:08:25;101586.50;;;7.34;99.50
79455;BME280;68900;52.134;5.420;2023-12-20T09:10:52;101581.25;;;7.33;99.48
79455;BME280;68900;52.134;5.420;2023-12-20T09:13:18;101580.28;;;7.34;99.82
79455;BME280;68900;52.134;5.420;2023-12-20T09:15:45;101584.88;;;7.32;100.00
79455;BME280;68900;52.134;5.420;2023-12-20T09:18:12;101577.81;;;7.31;100.00
79455;BME280;68900;52.134;5.420;2023-12-20T09:20:38;101576.84;;;7.32;100.00
79455;BME280;68900;52.134;5.420;2023-12-20T09:23:09;101582.97;;;7.34;100.00
79455;BME280;68900;52.134;5.420;2023-12-20T09:25:38;101571.38;;;7.33;100.00
79455;BME280;68900;52.134;5.420;2023-12-20T09:28:04;101580.28;;;7.34;100.00
79455;BME280;68900;52.134;5.420;2023-12-20T09:30:31;101578.31;;;7.36;100.00
79455;BME280;68900;52.134;5.420;2023-12-20T09:32:58;101570.06;;;7.39;100.00
79455;BME280;68900;52.134;5.420;2023-12-20T09:35:27;101569.06;;;7.40;100.00
79455;BME280;68900;52.134;5.420;2023-12-20T09:37:54;101581.44;;;7.42;100.00
79455;BME280;68900;52.134;5.420;2023-12-20T09:40:22;101576.69;;;7.46;100.00
79455;BME280;68900;52.134;5.420;2023-12-20T09:42:57;101582.81;;;7.48;100.00
79455;BME280;68900;52.134;5.420;2023-12-20T09:45:24;101578.16;;;7.50;100.00
79455;BME280;68900;52.134;5.420;2023-12-20T09:47:52;101586.13;;;7.51;100.00
79455;BME280;68900;52.134;5.420;2023-12-20T09:50:20;101590.19;;;7.57;100.00
79455;BME280;68900;52.134;5.420;2023-12-20T09:52:50;101590.81;;;7.61;100.00
79455;BME280;68900;52.134;5.420;2023-12-20T09:55:18;101581.53;;;7.65;100.00
79455;BME280;68900;52.134;5.420;2023-12-20T09:57:46;101580.34;;;7.69;99.62
79455;BME280;68900;52.134;5.420;2023-12-20T10:00:15;101573.16;;;7.69;100.00
79455;BME280;68900;52.134;5.420;2023-12-20T10:02:57;101581.72;;;7.74;99.75
79455;BME280;68900;52.134;5.420;2023-12-20T10:05:34;101591.16;;;7.80;99.56
79455;BME280;68900;52.134;5.420;2023-12-20T10:08:01;101593.50;;;7.84;98.90
79455;BME280;68900;52.134;5.420;2023-12-20T10:10:29;101586.28;;;7.85;99.38
79455;BME280;68900;52.134;5.420;2023-12-20T10:13:10;101589.69;;;7.87;99.35
79455;BME280;68900;52.134;5.420;2023-12-20T10:15:37;101600.09;;;7.91;98.34
79455;BME280;68900;52.134;5.420;2023-12-20T10:18:04;101599.03;;;7.94;98.37
79455;BME280;68900;52.134;5.420;2023-12-20T10:20:31;101601.38;;;7.98;97.83
79455;BME280;68900;52.134;5.420;2023-12-20T10:22:59;101597.72;;;7.99;97.24
79455;BME280;68900;52.134;5.420;2023-12-20T10:25:27;101592.34;;;7.99;97.70
79455;BME280;68900;52.134;5.420;2023-12-20T10:28:14;101595.75;;;8.02;97.95
79455;BME280;68900;52.134;5.420;2023-12-20T10:30:43;101582.22;;;8.03;97.95
79455;BME280;68900;52.134;5.420;2023-12-20T10:33:10;101575.00;;;8.04;98.14
79455;BME280;68900;52.134;5.420;2023-12-20T10:35:39;101576.47;;;8.08;97.93
79455;BME280;68900;52.134;5.420;2023-12-20T10:38:12;101571.84;;;8.10;97.17
79455;BME280;68900;52.134;5.420;2023-12-20T10:40:40;101568.19;;;8.11;97.21
79455;BME280;68900;52.134;5.420;2023-12-20T10:43:08;101572.47;;;8.13;96.35
79455;BME280;68900;52.134;5.420;2023-12-20T10:45:35;101573.56;;;8.11;95.86
79455;BME280;68900;52.134;5.420;2023-12-20T10:48:02;101558.03;;;8.14;96.08
79455;BME280;68900;52.134;5.420;2023-12-20T10:50:31;101573.94;;;8.17;95.83
79455;BME280;68900;52.134;5.420;2023-12-20T10:52:58;101560.50;;;8.17;95.97
79455;BME280;68900;52.134;5.420;2023-12-20T10:55:25;101556.00;;;8.18;95.91
79455;BME280;68900;52.134;5.420;2023-12-20T10:58:01;101554.16;;;8.18;95.93
79455;BME280;68900;52.134;5.420;2023-12-20T11:00:29;101555.13;;;8.17;95.59
79455;BME280;68900;52.134;5.420;2023-12-20T11:03:00;101562.09;;;8.20;95.31
79455;BME280;68900;52.134;5.420;2023-12-20T11:05:36;101551.13;;;8.23;95.67
79455;BME280;68900;52.134;5.420;2023-12-20T11:09:29;101560.66;;;8.27;95.71
79455;BME280;68900;52.134;5.420;2023-12-20T11:11:30;101554.97;;;8.31;95.09
79455;BME280;68900;52.134;5.420;2023-12-20T11:14:14;101547.50;;;8.35;95.10
79455;BME280;68900;52.134;5.420;2023-12-20T11:16:41;101550.91;;;8.37;95.06
79455;BME280;68900;52.134;5.420;2023-12-20T11:19:23;101550.69;;;8.40;94.97
79455;BME280;68900;52.134;5.420;2023-12-20T11:21:50;101547.66;;;8.45;95.57
79455;BME280;68900;52.134;5.420;2023-12-20T11:24:21;101530.66;;;8.44;94.66
79455;BME280;68900;52.134;5.420;2023-12-20T11:26:48;101534.31;;;8.43;95.14
79455;BME280;68900;52.134;5.420;2023-12-20T11:29:35;101524.53;;;8.42;94.92
79455;BME280;68900;52.134;5.420;2023-12-20T11:32:03;101521.84;;;8.42;94.72
79455;BME280;68900;52.134;5.420;2023-12-20T11:34:58;101520.50;;;8.48;94.88
79455;BME280;68900;52.134;5.420;2023-12-20T11:37:29;101525.53;;;8.52;94.62
79455;BME280;68900;52.134;5.420;2023-12-20T11:42:33;101519.41;;;8.61;94.66
79455;BME280;68900;52.134;5.420;2023-12-20T11:45:02;101515.63;;;8.64;94.13
79455;BME280;68900;52.134;5.420;2023-12-20T11:47:30;101508.44;;;8.64;93.93
79455;BME280;68900;52.134;5.420;2023-12-20T11:49:57;101515.38;;;8.67;93.80
79455;BME280;68900;52.134;5.420;2023-12-20T11:52:24;101496.28;;;8.70;94.43
79455;BME280;68900;52.134;5.420;2023-12-20T11:54:51;101488.38;;;8.68;93.18
79455;BME280;68900;52.134;5.420;2023-12-20T11:57:19;101488.38;;;8.68;93.06
79455;BME280;68900;52.134;5.420;2023-12-20T11:59:45;101493.59;;;8.70;92.68
79455;BME280;68900;52.134;5.420;2023-12-20T12:02:13;101498.00;;;8.71;92.13
79455;BME280;68900;52.134;5.420;2023-12-20T12:04:41;101488.00;;;8.73;91.59
79455;BME280;68900;52.134;5.420;2023-12-20T12:07:08;101491.56;;;8.73;91.98
79455;BME280;68900;52.134;5.420;2023-12-20T12:09:37;101489.84;;;8.72;92.21
79455;BME280;68900;52.134;5.420;2023-12-20T12:12:04;101492.41;;;8.74;92.24
79455;BME280;68900;52.134;5.420;2023-12-20T12:14:35;101504.13;;;8.73;92.48
79455;BME280;68900;52.134;5.420;2023-12-20T12:17:04;101509.38;;;8.74;92.87
79455;BME280;68900;52.134;5.420;2023-12-20T12:19:31;101515.75;;;8.73;92.87
79455;BME280;68900;52.134;5.420;2023-12-20T12:24:45;101502.31;;;8.73;92.89
79455;BME280;68900;52.134;5.420;2023-12-20T12:27:13;101508.56;;;8.74;92.61
79455;BME280;68900;52.134;5.420;2023-12-20T12:29:40;101493.97;;;8.76;92.07
79455;BME280;68900;52.134;5.420;2023-12-20T12:32:08;101488.50;;;8.78;92.39
79455;BME280;68900;52.134;5.420;2023-12-20T12:34:36;101485.81;;;8.78;92.68
79455;BME280;68900;52.134;5.420;2023-12-20T12:37:06;101470.63;;;8.77;92.87
79455;BME280;68900;52.134;5.420;2023-12-20T12:39:33;101466.09;;;8.77;92.38
79455;BME280;68900;52.134;5.420;2023-12-20T12:42:00;101473.22;;;8.78;92.55
79455;BME280;68900;52.134;5.420;2023-12-20T12:46:52;101459.75;;;8.78;92.68
79455;BME280;68900;52.134;5.420;2023-12-20T12:49:20;101459.75;;;8.78;92.29
79455;BME280;68900;52.134;5.420;2023-12-20T12:51:51;101466.22;;;8.76;92.66
79455;BME280;68900;52.134;5.420;2023-12-20T12:54:20;101454.50;;;8.77;93.25
79455;BME280;68900;52.134;5.420;2023-12-20T12:56:49;101455.34;;;8.77;92.96
79455;BME280;68900;52.134;5.420;2023-12-20T12:59:16;101463.41;;;8.77;92.94
79455;BME280;68900;52.134;5.420;2023-12-20T13:01:43;101449.81;;;8.79;92.32
79455;BME280;68900;52.134;5.420;2023-12-20T13:04:10;101453.50;;;8.78;93.44
79455;BME280;68900;52.134;5.420;2023-12-20T13:06:38;101445.56;;;8.76;93.45